sensor_id;sensor_type;location;lat;lon;timestamp;pressure;altitude;pressure_sealevel;temperature;humidity
47166;BME280;32930;51.112;13.762;2023-01-25T00:28:23;101338.34;;;3.75;100.00
47166;BME280;32930;51.112;13.762;2023-01-25T00:30:49;101333.47;;;3.78;100.00
47166;BME280;32930;51.112;13.762;2023-01-25T00:35:43;101334.06;;;3.74;100.00
47166;BME280;32930;51.112;13.762;2023-01-25T00:38:32;101340.31;;;3.79;100.00
47166;BME280;32930;51.112;13.762;2023-01-25T00:40:58;101340.63;;;3.70;99.94
47166;BME280;32930;51.112;13.762;2023-01-25T00:43:24;101337.66;;;3.77;99.36
47166;BME280;32930;51.112;13.762;2023-01-25T00:45:50;101339.41;;;3.78;99.52
47166;BME280;32930;51.112;13.762;2023-01-25T00:48:15;101333.47;;;3.78;99.58
47166;BME280;32930;51.112;13.762;2023-01-25T00:50:41;101334.84;;;3.72;99.93
47166;BME280;32930;51.112;13.762;2023-01-25T00:53:06;101337.25;;;3.84;99.00
47166;BME280;32930;51.112;13.762;2023-01-25T00:55:32;101331.97;;;3.81;99.53
47166;BME280;32930;51.112;13.762;2023-01-25T00:57:57;101332.69;;;3.79;100.00
47166;BME280;32930;51.112;13.762;2023-01-25T01:00:23;101325.16;;;3.80;99.65
47166;BME280;32930;51.112;13.762;2023-01-25T01:02:49;101330.25;;;3.80;98.95
47166;BME280;32930;51.112;13.762;2023-01-25T01:05:14;101326.63;;;3.77;97.93
47166;BME280;32930;51.112;13.762;2023-01-25T01:07:40;101324.00;;;3.75;97.53
47166;BME280;32930;51.112;13.762;2023-01-25T01:10:06;101323.13;;;3.75;97.89
47166;BME280;32930;51.112;13.762;2023-01-25T01:12:31;101318.84;;;3.74;97.92
47166;BME280;32930;51.112;13.762;2023-01-25T01:14:57;101323.28;;;3.91;95.56
47166;BME280;32930;51.112;13.762;2023-01-25T01:17:23;101327.13;;;3.71;96.19
47166;BME280;32930;51.112;13.762;2023-01-25T01:19:49;101323.66;;;3.69;96.74
47166;BME280;32930;51.112;13.762;2023-01-25T01:22:14;101320.50;;;3.73;96.33
47166;BME280;32930;51.112;13.762;2023-01-25T01:24:40;101312.03;;;3.72;96.85
47166;BME280;32930;51.112;13.762;2023-01-25T01:27:06;101311.00;;;3.84;95.39
47166;BME280;32930;51.112;13.762;2023-01-25T01:31:59;101293.72;;;3.78;97.12
47166;BME280;32930;51.112;13.762;2023-01-25T01:34:24;101302.75;;;3.73;96.71
47166;BME280;32930;51.112;13.762;2023-01-25T01:36:50;101287.41;;;3.71;96.48
47166;BME280;32930;51.112;13.762;2023-01-25T01:39:16;101286.53;;;3.71;96.47
47166;BME280;32930;51.112;13.762;2023-01-25T01:41:42;101279.22;;;3.76;95.99
47166;BME280;32930;51.112;13.762;2023-01-25T01:44:16;101281.44;;;3.71;95.92
47166;BME280;32930;51.112;13.762;2023-01-25T01:46:48;101277.00;;;3.67;96.08
47166;BME280;32930;51.112;13.762;2023-01-25T01:49:20;101269.56;;;3.70;97.09
47166;BME280;32930;51.112;13.762;2023-01-25T01:54:24;101273.94;;;3.72;96.81
47166;BME280;32930;51.112;13.762;2023-01-25T01:57:02;101274.25;;;3.92;95.53
47166;BME280;32930;51.112;13.762;2023-01-25T01:59:35;101270.44;;;3.70;95.22
47166;BME280;32930;51.112;13.762;2023-01-25T02:08:24;101254.94;;;3.66;95.79
47166;BME280;32930;51.112;13.762;2023-01-25T02:10:50;101253.09;;;3.63;96.80
47166;BME280;32930;51.112;13.762;2023-01-25T02:13:18;101254.66;;;3.61;96.03
47166;BME280;32930;51.112;13.762;2023-01-25T02:15:47;101252.78;;;3.72;96.52
47166;BME280;32930;51.112;13.762;2023-01-25T02:18:14;101254.03;;;3.65;97.19
47166;BME280;32930;51.112;13.762;2023-01-25T02:20:47;101248.66;;;3.74;96.99
47166;BME280;32930;51.112;13.762;2023-01-25T02:23:39;101240.41;;;3.63;97.10
47166;BME280;32930;51.112;13.762;2023-01-25T02:26:12;101233.97;;;3.55;96.60
47166;BME280;32930;51.112;13.762;2023-01-25T02:28:46;101232.59;;;3.60;96.49
47166;BME280;32930;51.112;13.762;2023-01-25T02:31:12;101231.50;;;3.70;97.42
47166;BME280;32930;51.112;13.762;2023-01-25T02:33:38;101231.00;;;3.47;96.62
47166;BME280;32930;51.112;13.762;2023-01-25T02:38:34;101222.28;;;3.57;97.02
47166;BME280;32930;51.112;13.762;2023-01-25T02:41:09;101220.41;;;3.55;96.90
47166;BME280;32930;51.112;13.762;2023-01-25T02:43:36;101214.34;;;3.66;96.24
47166;BME280;32930;51.112;13.762;2023-01-25T02:48:42;101213.25;;;3.62;96.50
47166;BME280;32930;51.112;13.762;2023-01-25T02:51:09;101217.41;;;3.75;95.81
47166;BME280;32930;51.112;13.762;2023-01-25T02:53:35;101209.97;;;3.78;95.89
47166;BME280;32930;51.112;13.762;2023-01-25T02:56:01;101204.97;;;3.65;96.33
47166;BME280;32930;51.112;13.762;2023-01-25T02:58:26;101203.22;;;3.64;96.37
47166;BME280;32930;51.112;13.762;2023-01-25T03:00:52;101204.38;;;3.69;96.29
47166;BME280;32930;51.112;13.762;2023-01-25T03:03:19;101203.81;;;3.60;97.15
47166;BME280;32930;51.112;13.762;2023-01-25T03:05:44;101201.53;;;3.64;97.70
47166;BME280;32930;51.112;13.762;2023-01-25T03:08:10;101207.50;;;3.65;97.38
47166;BME280;32930;51.112;13.762;2023-01-25T03:10:35;101200.50;;;3.61;97.51
47166;BME280;32930;51.112;13.762;2023-01-25T03:13:01;101206.44;;;3.61;98.29
47166;BME280;32930;51.112;13.762;2023-01-25T03:15:26;101203.09;;;3.62;97.29
47166;BME280;32930;51.112;13.762;2023-01-25T03:17:52;101210.03;;;3.65;97.43
47166;BME280;32930;51.112;13.762;2023-01-25T03:20:17;101208.09;;;3.61;97.14
47166;BME280;32930;51.112;13.762;2023-01-25T03:22:43;101203.22;;;3.64;97.34
47166;BME280;32930;51.112;13.762;2023-01-25T03:31:14;101192.78;;;3.59;97.48
47166;BME280;32930;51.112;13.762;2023-01-25T03:33:41;101196.59;;;3.66;96.51
47166;BME280;32930;51.112;13.762;2023-01-25T03:36:07;101196.28;;;3.61;98.13
47166;BME280;32930;51.112;13.762;2023-01-25T03:38:33;101198.56;;;3.57;98.67
47166;BME280;32930;51.112;13.762;2023-01-25T03:40:59;101189.53;;;3.62;98.45
47166;BME280;32930;51.112;13.762;2023-01-25T03:43:25;101191.13;;;3.60;98.29
47166;BME280;32930;51.112;13.762;2023-01-25T03:45:57;101188.41;;;3.57;98.77
47166;BME280;32930;51.112;13.762;2023-01-25T03:48:24;101185.88;;;3.57;99.07
47166;BME280;32930;51.112;13.762;2023-01-25T03:50:52;101187.13;;;3.63;98.45
47166;BME280;32930;51.112;13.762;2023-01-25T03:53:19;101183.09;;;3.67;98.05
47166;BME280;32930;51.112;13.762;2023-01-25T03:55:59;101186.25;;;3.63;98.02
47166;BME280;32930;51.112;13.762;2023-01-25T03:58:25;101191.56;;;3.67;97.96
47166;BME280;32930;51.112;13.762;2023-01-25T04:00:50;101191.50;;;3.66;97.52
47166;BME280;32930;51.112;13.762;2023-01-25T04:03:18;101188.59;;;3.60;98.34
47166;BME280;32930;51.112;13.762;2023-01-25T04:05:46;101188.00;;;3.64;98.19
47166;BME280;32930;51.112;13.762;2023-01-25T04:08:12;101186.13;;;3.61;98.01
47166;BME280;32930;51.112;13.762;2023-01-25T04:10:37;101178.63;;;3.63;98.54
47166;BME280;32930;51.112;13.762;2023-01-25T04:29:52;101171.41;;;3.56;97.80
47166;BME280;32930;51.112;13.762;2023-01-25T04:32:18;101167.94;;;3.54;97.91
47166;BME280;32930;51.112;13.762;2023-01-25T04:34:43;101171.53;;;3.57;96.90
47166;BME280;32930;51.112;13.762;2023-01-25T04:37:09;101173.75;;;3.38;95.98
47166;BME280;32930;51.112;13.762;2023-01-25T04:39:34;101177.59;;;3.46;96.76
47166;BME280;32930;51.112;13.762;2023-01-25T04:42:00;101179.03;;;3.56;97.25
47166;BME280;32930;51.112;13.762;2023-01-25T04:44:25;101176.22;;;3.51;96.86
47166;BME280;32930;51.112;13.762;2023-01-25T04:46:51;101182.91;;;3.64;95.91
47166;BME280;32930;51.112;13.762;2023-01-25T06:16:30;101118.75;;;3.52;98.04
47166;BME280;32930;51.112;13.762;2023-01-25T06:18:55;101118.31;;;3.44;97.44
47166;BME280;32930;51.112;13.762;2023-01-25T06:21:21;101123.41;;;3.59;97.78
47166;BME280;32930;51.112;13.762;2023-01-25T06:23:47;101119.91;;;3.57;97.24
47166;BME280;32930;51.112;13.762;2023-01-25T06:26:14;101128.91;;;3.52;98.14
47166;BME280;32930;51.112;13.762;2023-01-25T06:28:40;101117.44;;;3.58;98.26
47166;BME280;32930;51.112;13.762;2023-01-25T06:31:10;101125.13;;;3.45;97.78
47166;BME280;32930;51.112;13.762;2023-01-25T06:33:37;101126.22;;;3.63;97.60
47166;BME280;32930;51.112;13.762;2023-01-25T06:36:10;101120.09;;;3.60;96.95
47166;BME280;32930;51.112;13.762;2023-01-25T06:38:36;101117.91;;;3.66;98.08
47166;BME280;32930;51.112;13.762;2023-01-25T06:41:03;101119.56;;;3.51;96.80
47166;BME280;32930;51.112;13.762;2023-01-25T06:43:31;101118.31;;;3.59;96.56
47166;BME280;32930;51.112;13.762;2023-01-25T06:45:59;101121.03;;;3.62;96.28
47166;BME280;32930;51.112;13.762;2023-01-25T06:48:25;101121.03;;;3.47;97.02
47166;BME280;32930;51.112;13.762;2023-01-25T06:50:56;101120.09;;;3.60;96.62
47166;BME280;32930;51.112;13.762;2023-01-25T06:53:24;101122.28;;;3.54;96.24
47166;BME280;32930;51.112;13.762;2023-01-25T06:56:11;101126.56;;;3.69;95.01
47166;BME280;32930;51.112;13.762;2023-01-25T06:58:38;101120.63;;;3.84;95.11
47166;BME280;32930;51.112;13.762;2023-01-25T07:01:14;101118.28;;;3.72;93.77
47166;BME280;32930;51.112;13.762;2023-01-25T07:03:41;101119.50;;;3.79;94.23
47166;BME280;32930;51.112;13.762;2023-01-25T07:06:09;101111.06;;;3.50;95.07
47166;BME280;32930;51.112;13.762;2023-01-25T07:08:35;101102.91;;;3.56;95.37
47166;BME280;32930;51.112;13.762;2023-01-25T07:11:03;101106.69;;;3.62;94.77
47166;BME280;32930;51.112;13.762;2023-01-25T07:13:31;101108.44;;;3.78;93.02
47166;BME280;32930;51.112;13.762;2023-01-25T07:16:03;101103.63;;;3.68;92.27
47166;BME280;32930;51.112;13.762;2023-01-25T07:18:30;101100.16;;;3.66;93.48
47166;BME280;32930;51.112;13.762;2023-01-25T07:33:31;101083.88;;;3.47;96.23
47166;BME280;32930;51.112;13.762;2023-01-25T07:36:05;101075.97;;;3.43;96.42
47166;BME280;32930;51.112;13.762;2023-01-25T07:38:34;101071.19;;;3.47;96.05
47166;BME280;32930;51.112;13.762;2023-01-25T07:41:00;101066.19;;;3.49;95.47
47166;BME280;32930;51.112;13.762;2023-01-25T07:43:26;101063.91;;;3.54;95.76
47166;BME280;32930;51.112;13.762;2023-01-25T07:45:52;101069.94;;;3.56;96.39
47166;BME280;32930;51.112;13.762;2023-01-25T07:48:19;101059.63;;;3.53;96.82
47166;BME280;32930;51.112;13.762;2023-01-25T07:50:45;101050.19;;;3.50;96.94
47166;BME280;32930;51.112;13.762;2023-01-25T07:53:14;101050.97;;;3.49;96.62
47166;BME280;32930;51.112;13.762;2023-01-25T07:55:40;101048.59;;;3.52;96.69
47166;BME280;32930;51.112;13.762;2023-01-25T07:58:07;101054.47;;;3.51;95.82
47166;BME280;32930;51.112;13.762;2023-01-25T08:00:33;101052.44;;;3.45;95.79
47166;BME280;32930;51.112;13.762;2023-01-25T08:02:59;101050.97;;;3.64;94.63
47166;BME280;32930;51.112;13.762;2023-01-25T08:05:24;101046.53;;;3.60;94.62
47166;BME280;32930;51.112;13.762;2023-01-25T08:07:50;101042.81;;;3.55;96.28
47166;BME280;32930;51.112;13.762;2023-01-25T08:10:15;101044.22;;;3.49;97.21
47166;BME280;32930;51.112;13.762;2023-01-25T08:12:45;101040.47;;;3.58;96.85
47166;BME280;32930;51.112;13.762;2023-01-25T08:15:12;101041.78;;;3.66;94.46
47166;BME280;32930;51.112;13.762;2023-01-25T08:17:38;101037.06;;;3.57;95.63
47166;BME280;32930;51.112;13.762;2023-01-25T08:20:04;101036.97;;;3.56;94.99
47166;BME280;32930;51.112;13.762;2023-01-25T08:22:30;101041.09;;;3.54;95.18
47166;BME280;32930;51.112;13.762;2023-01-25T08:24:56;101043.63;;;3.54;95.80
47166;BME280;32930;51.112;13.762;2023-01-25T08:27:21;101035.91;;;3.52;95.83
47166;BME280;32930;51.112;13.762;2023-01-25T08:29:47;101037.16;;;3.44;95.19
47166;BME280;32930;51.112;13.762;2023-01-25T08:32:15;101045.28;;;3.53;95.98
47166;BME280;32930;51.112;13.762;2023-01-25T08:34:41;101043.84;;;3.43;95.20
47166;BME280;32930;51.112;13.762;2023-01-25T08:37:06;101052.63;;;3.48;95.44
47166;BME280;32930;51.112;13.762;2023-01-25T08:39:34;101045.81;;;3.47;95.88
47166;BME280;32930;51.112;13.762;2023-01-25T08:42:00;101045.88;;;3.49;96.09
47166;BME280;32930;51.112;13.762;2023-01-25T08:44:25;101042.81;;;3.55;94.30
47166;BME280;32930;51.112;13.762;2023-01-25T08:46:51;101034.63;;;3.44;94.97
47166;BME280;32930;51.112;13.762;2023-01-25T08:49:17;101035.22;;;3.55;95.43
47166;BME280;32930;51.112;13.762;2023-01-25T08:51:42;101038.03;;;3.44;95.39
47166;BME280;32930;51.112;13.762;2023-01-25T08:54:11;101033.13;;;3.47;96.66
47166;BME280;32930;51.112;13.762;2023-01-25T08:56:38;101033.38;;;3.52;96.35
47166;BME280;32930;51.112;13.762;2023-01-25T08:59:05;101026.13;;;3.58;95.98
47166;BME280;32930;51.112;13.762;2023-01-25T09:01:31;101027.84;;;3.59;96.65
47166;BME280;32930;51.112;13.762;2023-01-25T09:03:57;101019.13;;;3.54;96.12
47166;BME280;32930;51.112;13.762;2023-01-25T09:06:22;101026.47;;;3.49;95.92
47166;BME280;32930;51.112;13.762;2023-01-25T09:08:48;101021.56;;;3.53;95.36
47166;BME280;32930;51.112;13.762;2023-01-25T09:11:18;101013.09;;;3.52;95.12
47166;BME280;32930;51.112;13.762;2023-01-25T09:13:44;101025.94;;;3.40;95.47
47166;BME280;32930;51.112;13.762;2023-01-25T09:16:13;101015.78;;;3.55;96.38
47166;BME280;32930;51.112;13.762;2023-01-25T09:18:41;101004.84;;;3.56;96.79
47166;BME280;32930;51.112;13.762;2023-01-25T09:21:13;101006.28;;;3.51;96.13
47166;BME280;32930;51.112;13.762;2023-01-25T09:23:39;101005.38;;;3.65;95.95
47166;BME280;32930;51.112;13.762;2023-01-25T09:26:05;101000.22;;;3.64;95.27
47166;BME280;32930;51.112;13.762;2023-01-25T09:28:32;100999.00;;;3.72;94.76
47166;BME280;32930;51.112;13.762;2023-01-25T09:31:02;100996.28;;;3.69;93.35
47166;BME280;32930;51.112;13.762;2023-01-25T09:33:32;101001.03;;;3.63;93.79
47166;BME280;32930;51.112;13.762;2023-01-25T09:35:58;100998.66;;;3.66;94.54
47166;BME280;32930;51.112;13.762;2023-01-25T09:38:24;101002.81;;;3.80;94.27
47166;BME280;32930;51.112;13.762;2023-01-25T09:52:11;100993.06;;;3.57;95.42
47166;BME280;32930;51.112;13.762;2023-01-25T09:54:43;100993.13;;;3.73;95.01
47166;BME280;32930;51.112;13.762;2023-01-25T09:57:16;100993.75;;;3.69;95.98
47166;BME280;32930;51.112;13.762;2023-01-25T09:59:44;100988.69;;;3.69;97.35
47166;BME280;32930;51.112;13.762;2023-01-25T10:02:37;100988.22;;;3.76;96.91
47166;BME280;32930;51.112;13.762;2023-01-25T10:05:24;100982.00;;;3.71;96.70
47166;BME280;32930;51.112;13.762;2023-01-25T10:10:37;100993.03;;;3.71;96.08
47166;BME280;32930;51.112;13.762;2023-01-25T10:13:11;100986.22;;;3.70;95.79
47166;BME280;32930;51.112;13.762;2023-01-25T10:15:42;100992.16;;;3.71;96.01
47166;BME280;32930;51.112;13.762;2023-01-25T10:18:40;100975.53;;;3.76;96.73
47166;BME280;32930;51.112;13.762;2023-01-25T10:21:19;100972.19;;;3.77;97.47
47166;BME280;32930;51.112;13.762;2023-01-25T10:24:05;100964.41;;;3.74;95.38
47166;BME280;32930;51.112;13.762;2023-01-25T10:26:38;100962.06;;;3.77;96.60
47166;BME280;32930;51.112;13.762;2023-01-25T10:29:19;100968.66;;;3.90;95.31
47166;BME280;32930;51.112;13.762;2023-01-25T10:31:47;100966.00;;;3.72;95.29
47166;BME280;32930;51.112;13.762;2023-01-25T10:34:23;100966.16;;;3.75;95.34
47166;BME280;32930;51.112;13.762;2023-01-25T10:36:53;100955.44;;;3.95;94.60
47166;BME280;32930;51.112;13.762;2023-01-25T10:39:20;100949.97;;;3.88;93.63
47166;BME280;32930;51.112;13.762;2023-01-25T10:42:00;100946.28;;;3.83;94.34
47166;BME280;32930;51.112;13.762;2023-01-25T10:44:29;100935.88;;;3.78;95.66
47166;BME280;32930;51.112;13.762;2023-01-25T10:47:04;100934.94;;;3.76;95.58
47166;BME280;32930;51.112;13.762;2023-01-25T10:49:55;100932.56;;;3.79;95.14
47166;BME280;32930;51.112;13.762;2023-01-25T10:52:25;100926.53;;;3.77;95.52
47166;BME280;32930;51.112;13.762;2023-01-25T10:55:13;100927.50;;;3.64;95.05
47166;BME280;32930;51.112;13.762;2023-01-25T10:57:57;100928.03;;;3.74;94.84
47166;BME280;32930;51.112;13.762;2023-01-25T11:00:41;100915.34;;;3.74;93.58
47166;BME280;32930;51.112;13.762;2023-01-25T11:06:01;100908.56;;;4.05;92.19
47166;BME280;32930;51.112;13.762;2023-01-25T11:08:41;100900.97;;;3.74;93.36
47166;BME280;32930;51.112;13.762;2023-01-25T11:13:40;100895.44;;;3.81;96.43
47166;BME280;32930;51.112;13.762;2023-01-25T11:16:18;100896.22;;;3.80;96.74
47166;BME280;32930;51.112;13.762;2023-01-25T11:18:53;100894.50;;;3.79;96.03
47166;BME280;32930;51.112;13.762;2023-01-25T11:21:24;100887.66;;;3.78;96.04
47166;BME280;32930;51.112;13.762;2023-01-25T11:24:16;100890.75;;;3.72;95.32
47166;BME280;32930;51.112;13.762;2023-01-25T11:26:43;100883.16;;;3.72;96.20
47166;BME280;32930;51.112;13.762;2023-01-25T11:31:39;100875.59;;;3.74;96.40
47166;BME280;32930;51.112;13.762;2023-01-25T11:34:12;100874.19;;;3.79;97.02
47166;BME280;32930;51.112;13.762;2023-01-25T11:36:54;100869.31;;;3.67;97.11
47166;BME280;32930;51.112;13.762;2023-01-25T11:48:02;100840.56;;;3.83;94.37
47166;BME280;32930;51.112;13.762;2023-01-25T11:50:49;100830.56;;;3.86;95.71
47166;BME280;32930;51.112;13.762;2023-01-25T12:31:50;100754.44;;;3.86;94.11
47166;BME280;32930;51.112;13.762;2023-01-25T12:36:51;100754.91;;;3.95;94.80
47166;BME280;32930;51.112;13.762;2023-01-25T12:39:27;100750.34;;;4.06;90.54
47166;BME280;32930;51.112;13.762;2023-01-25T12:41:59;100754.81;;;3.94;91.02
47166;BME280;32930;51.112;13.762;2023-01-25T12:47:20;100744.84;;;3.64;94.07
47166;BME280;32930;51.112;13.762;2023-01-25T12:52:36;100720.25;;;3.80;95.19
47166;BME280;32930;51.112;13.762;2023-01-25T12:55:05;100727.38;;;3.70;94.64
47166;BME280;32930;51.112;13.762;2023-01-25T13:03:32;100727.88;;;3.80;93.75
47166;BME280;32930;51.112;13.762;2023-01-25T13:06:19;100717.34;;;3.72;95.21
47166;BME280;32930;51.112;13.762;2023-01-25T13:09:08;100717.56;;;3.77;94.18
47166;BME280;32930;51.112;13.762;2023-01-25T13:11:42;100709.41;;;3.82;94.25
47166;BME280;32930;51.112;13.762;2023-01-25T13:16:54;100701.78;;;3.82;93.52
47166;BME280;32930;51.112;13.762;2023-01-25T13:21:55;100704.31;;;3.82;93.86
47166;BME280;32930;51.112;13.762;2023-01-25T13:24:34;100702.03;;;3.70;93.52
47166;BME280;32930;51.112;13.762;2023-01-25T13:27:29;100697.97;;;3.74;93.68
47166;BME280;32930;51.112;13.762;2023-01-25T13:30:02;100704.38;;;3.84;89.40
47166;BME280;32930;51.112;13.762;2023-01-25T13:40:43;100682.47;;;4.02;89.33
47166;BME280;32930;51.112;13.762;2023-01-25T13:45:40;100666.44;;;3.69;92.16
47166;BME280;32930;51.112;13.762;2023-01-25T13:48:17;100672.69;;;3.76;91.23
47166;BME280;32930;51.112;13.762;2023-01-25T13:51:02;100670.06;;;3.74;90.44
47166;BME280;32930;51.112;13.762;2023-01-25T13:53:32;100668.16;;;3.70;89.34
47166;BME280;32930;51.112;13.762;2023-01-25T13:56:00;100669.41;;;3.78;90.56
47166;BME280;32930;51.112;13.762;2023-01-25T13:58:41;100659.56;;;3.84;90.30
47166;BME280;32930;51.112;13.762;2023-01-25T14:01:15;100659.66;;;3.86;89.61
47166;BME280;32930;51.112;13.762;2023-01-25T14:03:48;100655.78;;;3.76;88.52
47166;BME280;32930;51.112;13.762;2023-01-25T14:06:30;100657.59;;;4.13;87.13
47166;BME280;32930;51.112;13.762;2023-01-25T14:09:04;100659.25;;;3.94;87.29
47166;BME280;32930;51.112;13.762;2023-01-25T14:11:35;100649.56;;;3.87;88.26
47166;BME280;32930;51.112;13.762;2023-01-25T14:14:24;100640.16;;;3.85;90.65
47166;BME280;32930;51.112;13.762;2023-01-25T14:17:17;100624.78;;;3.65;91.40
47166;BME280;32930;51.112;13.762;2023-01-25T14:19:48;100636.13;;;3.72;92.43
47166;BME280;32930;51.112;13.762;2023-01-25T14:22:30;100631.06;;;3.72;91.57
47166;BME280;32930;51.112;13.762;2023-01-25T14:25:16;100631.84;;;3.71;90.60
47166;BME280;32930;51.112;13.762;2023-01-25T14:27:45;100626.09;;;3.75;91.25
47166;BME280;32930;51.112;13.762;2023-01-25T14:32:43;100632.53;;;3.68;90.05
47166;BME280;32930;51.112;13.762;2023-01-25T14:35:38;100626.59;;;3.68;90.88
47166;BME280;32930;51.112;13.762;2023-01-25T14:38:24;100623.44;;;3.72;90.74
47166;BME280;32930;51.112;13.762;2023-01-25T14:40:54;100616.47;;;3.68;90.22
47166;BME280;32930;51.112;13.762;2023-01-25T14:43:22;100612.19;;;3.67;92.17
47166;BME280;32930;51.112;13.762;2023-01-25T14:45:48;100608.13;;;3.70;91.52
47166;BME280;32930;51.112;13.762;2023-01-25T14:48:46;100604.78;;;3.71;92.16
47166;BME280;32930;51.112;13.762;2023-01-25T14:53:45;100593.06;;;3.74;91.84
47166;BME280;32930;51.112;13.762;2023-01-25T14:56:33;100595.53;;;3.72;92.81
47166;BME280;32930;51.112;13.762;2023-01-25T14:59:00;100593.56;;;3.66;92.49
47166;BME280;32930;51.112;13.762;2023-01-25T15:01:38;100589.41;;;3.68;93.05
47166;BME280;32930;51.112;13.762;2023-01-25T15:04:10;100583.41;;;3.66;92.47
47166;BME280;32930;51.112;13.762;2023-01-25T15:06:50;100579.78;;;3.61;92.89
47166;BME280;32930;51.112;13.762;2023-01-25T15:12:26;100571.66;;;3.68;93.89
47166;BME280;32930;51.112;13.762;2023-01-25T15:14:54;100565.09;;;3.56;93.77
47166;BME280;32930;51.112;13.762;2023-01-25T15:17:55;100558.66;;;3.62;92.99
47166;BME280;32930;51.112;13.762;2023-01-25T15:20:37;100559.22;;;3.73;94.71
47166;BME280;32930;51.112;13.762;2023-01-25T15:25:57;100546.44;;;3.71;93.25
47166;BME280;32930;51.112;13.762;2023-01-25T15:28:29;100540.66;;;3.74;92.99
47166;BME280;32930;51.112;13.762;2023-01-25T15:30:59;100538.63;;;3.67;92.84
47166;BME280;32930;51.112;13.762;2023-01-25T15:33:27;100541.97;;;3.66;92.03
47166;BME280;32930;51.112;13.762;2023-01-25T15:35:55;100534.56;;;3.70;92.52
47166;BME280;32930;51.112;13.762;2023-01-25T15:38:21;100528.09;;;3.77;92.20
47166;BME280;32930;51.112;13.762;2023-01-25T15:40:47;100534.34;;;3.66;92.33
47166;BME280;32930;51.112;13.762;2023-01-25T15:43:14;100535.13;;;3.65;92.73
47166;BME280;32930;51.112;13.762;2023-01-25T15:45:43;100529.91;;;3.62;92.50
47166;BME280;32930;51.112;13.762;2023-01-25T15:48:22;100521.06;;;3.71;92.40
47166;BME280;32930;51.112;13.762;2023-01-25T15:50:51;100525.84;;;3.65;92.93
47166;BME280;32930;51.112;13.762;2023-01-25T15:53:19;100516.50;;;3.64;93.44
47166;BME280;32930;51.112;13.762;2023-01-25T15:55:52;100518.22;;;3.65;93.02
47166;BME280;32930;51.112;13.762;2023-01-25T15:58:28;100508.16;;;3.67;92.40
47166;BME280;32930;51.112;13.762;2023-01-25T16:00:54;100509.75;;;3.65;92.95
47166;BME280;32930;51.112;13.762;2023-01-25T16:03:20;100501.38;;;3.66;93.60
47166;BME280;32930;51.112;13.762;2023-01-25T16:05:55;100502.38;;;3.69;93.22
47166;BME280;32930;51.112;13.762;2023-01-25T16:08:21;100493.25;;;3.73;93.08
47166;BME280;32930;51.112;13.762;2023-01-25T16:10:46;100495.19;;;3.61;92.54
47166;BME280;32930;51.112;13.762;2023-01-25T16:13:12;100498.97;;;3.69;92.86
47166;BME280;32930;51.112;13.762;2023-01-25T16:15:38;100491.38;;;3.69;92.56
47166;BME280;32930;51.112;13.762;2023-01-25T16:18:05;100493.09;;;3.70;92.88
47166;BME280;32930;51.112;13.762;2023-01-25T16:20:30;100496.28;;;3.66;92.41
47166;BME280;32930;51.112;13.762;2023-01-25T16:22:56;100494.31;;;3.78;92.24
47166;BME280;32930;51.112;13.762;2023-01-25T16:25:22;100484.53;;;3.68;92.30
47166;BME280;32930;51.112;13.762;2023-01-25T16:27:49;100482.13;;;3.71;92.25
47166;BME280;32930;51.112;13.762;2023-01-25T16:30:24;100476.91;;;3.68;92.83
47166;BME280;32930;51.112;13.762;2023-01-25T16:46:59;100455.72;;;3.49;93.14
47166;BME280;32930;51.112;13.762;2023-01-25T16:49:25;100445.25;;;3.60;92.79
47166;BME280;32930;51.112;13.762;2023-01-25T16:51:53;100449.22;;;3.55;93.88
47166;BME280;32930;51.112;13.762;2023-01-25T16:54:19;100451.97;;;3.59;93.89
47166;BME280;32930;51.112;13.762;2023-01-25T16:56:46;100449.53;;;3.61;94.34
47166;BME280;32930;51.112;13.762;2023-01-25T16:59:12;100446.31;;;3.65;94.10
47166;BME280;32930;51.112;13.762;2023-01-25T17:01:38;100449.94;;;3.52;94.26
47166;BME280;32930;51.112;13.762;2023-01-25T17:06:44;100432.91;;;3.49;95.32
47166;BME280;32930;51.112;13.762;2023-01-25T17:09:16;100424.16;;;3.61;94.99
47166;BME280;32930;51.112;13.762;2023-01-25T17:11:44;100418.84;;;3.56;95.00
47166;BME280;32930;51.112;13.762;2023-01-25T17:14:15;100423.16;;;3.57;95.15
47166;BME280;32930;51.112;13.762;2023-01-25T17:16:41;100423.16;;;3.57;95.33
47166;BME280;32930;51.112;13.762;2023-01-25T17:19:12;100428.13;;;3.56;94.97
47166;BME280;32930;51.112;13.762;2023-01-25T17:28:23;100410.66;;;3.62;95.91
47166;BME280;32930;51.112;13.762;2023-01-25T17:30:49;100399.88;;;3.66;95.75
47166;BME280;32930;51.112;13.762;2023-01-25T17:33:18;100402.34;;;3.64;95.35
47166;BME280;32930;51.112;13.762;2023-01-25T17:35:44;100394.38;;;3.57;95.45
47166;BME280;32930;51.112;13.762;2023-01-25T17:38:09;100385.66;;;3.69;96.75
47166;BME280;32930;51.112;13.762;2023-01-25T17:40:35;100388.06;;;3.66;95.26
47166;BME280;32930;51.112;13.762;2023-01-25T17:43:02;100383.75;;;3.65;95.58
47166;BME280;32930;51.112;13.762;2023-01-25T17:45:28;100388.97;;;3.68;95.65
47166;BME280;32930;51.112;13.762;2023-01-25T17:47:53;100393.13;;;3.66;95.75
47166;BME280;32930;51.112;13.762;2023-01-25T18:24:05;100356.00;;;3.68;95.69
47166;BME280;32930;51.112;13.762;2023-01-25T18:26:34;100354.06;;;3.63;96.11
47166;BME280;32930;51.112;13.762;2023-01-25T18:31:32;100349.28;;;3.69;95.51
47166;BME280;32930;51.112;13.762;2023-01-25T18:33:58;100356.22;;;3.73;95.44
47166;BME280;32930;51.112;13.762;2023-01-25T18:36:24;100357.47;;;3.63;95.74
47166;BME280;32930;51.112;13.762;2023-01-25T18:38:49;100355.22;;;3.69;94.97
47166;BME280;32930;51.112;13.762;2023-01-25T20:56:00;100202.59;;;3.60;95.16
47166;BME280;32930;51.112;13.762;2023-01-25T20:58:30;100192.50;;;3.62;94.99